Les Bruxellois — 9HB5703 — position and weather

sailwx.info

Track history (hours):
 
Tides and Currents Weather Stations Pressure Air Temp Water Temp Dewpoint Dewpoint Depression Visibility Wind Speed Wind Dir Waves Ship Positions

Les Bruxellois

Last reported at 2017-Nov-04 08:54 UTC. Time now 2017-Dec-15 15:55 UTC.
Position N 43°51' E 010°14'.
Warning: this ship's position is 41 days out of date.

Length 34 m; draft 22.2 m.

Type: Pleasure craft. MMSI: 248407000.

Date/timePositionNaut miles runAvg speedWind from/ knotsBaromVisibWave heightAir tempDewpointWater temp
2017-Nov-04 08:54N 43°51' E 010°14'0 0.0
2017-Nov-04 08:30N 43°51' E 010°14'0 0.0
2017-Nov-04 08:00N 43°51' E 010°14'1 1.4
2017-Nov-04 07:30N 43°52' E 010°14'1 2.3
2017-Nov-04 07:01N 43°51' E 010°13'0 0.4
2017-Nov-04 06:30N 43°51' E 010°13'0 0.3
2017-Nov-04 06:00N 43°51' E 010°14'4 7.8
2017-Nov-04 05:30N 43°47' E 010°12'4 8.7
2017-Nov-04 05:00N 43°43' E 010°11'4 8.5
2017-Nov-04 04:31N 43°39' E 010°09'4 8.4
2017-Nov-04 04:00N 43°34' E 010°09'4 8.2
2017-Nov-04 03:28N 43°30' E 010°08'5 8.9
2017-Nov-04 02:56N 43°26' E 010°11'4 8.9
2017-Nov-04 02:30N 43°22' E 010°13'4 8.9
2017-Nov-04 02:00N 43°18' E 010°16'37711.6
2017-Nov-02 17:33N 38°27' E 015°31'013.2
2017-Nov-02 17:30N 38°26' E 015°32'813.1
2017-Nov-02 16:55N 38°20' E 015°38'7 9.3
2017-Nov-02 16:12N 38°14' E 015°38'314.5
2017-Nov-02 16:00N 38°11' E 015°37'713.6
2017-Nov-02 15:30N 38°04' E 015°38'1111.9
2017-Nov-02 14:33N 37°55' E 015°46'  
2017-Oct-27 13:53N 39°05' E 017°08'0 1.2
2017-Oct-27 13:30N 39°05' E 017°09'22 5.5
2017-Oct-27 09:36N 39°17' E 017°32'214.7
2017-Oct-27 09:29N 39°18' E 017°33'714.4
2017-Oct-27 08:59N 39°24' E 017°39'2814.4
2017-Oct-27 07:04N 39°43' E 018°05'114.8
2017-Oct-27 07:00N 39°43' E 018°06'814.4
2017-Oct-27 06:26N 39°48' E 018°14'1 2.1
2017-Oct-27 06:00N 39°49' E 018°15'0 0.0
2017-Oct-27 05:31N 39°49' E 018°15'0 0.0
2017-Oct-27 05:00N 39°49' E 018°15'0 0.0
2017-Oct-27 04:30N 39°49' E 018°15'0 0.0
2017-Oct-27 03:59N 39°49' E 018°15'0 0.0
2017-Oct-27 03:04N 39°49' E 018°15'0 0.0
2017-Oct-27 02:43N 39°49' E 018°15'0 0.1
2017-Oct-27 02:30N 39°49' E 018°15'0 0.0
2017-Oct-27 01:58N 39°49' E 018°15'0 0.0
2017-Oct-27 00:39N 39°49' E 018°15'0 0.0
2017-Oct-27 00:18N 39°49' E 018°15'0 0.0
2017-Oct-27 00:00N 39°49' E 018°15'0 0.0
2017-Oct-26 23:29N 39°49' E 018°15'0 0.0
2017-Oct-26 23:00N 39°49' E 018°15'0 0.0
2017-Oct-26 22:31N 39°49' E 018°15'0 0.0
2017-Oct-26 22:00N 39°49' E 018°15'0 0.0
2017-Oct-26 21:30N 39°49' E 018°15'0 0.0
2017-Oct-26 21:01N 39°49' E 018°15'0 0.5
2017-Oct-26 20:30N 39°49' E 018°15'5 9.6
2017-Oct-26 20:01N 39°46' E 018°20'713.4
2017-Oct-26 19:30N 39°44' E 018°28'713.4
2017-Oct-26 18:58N 39°42' E 018°37'1113.4
2017-Oct-26 18:11N 39°41' E 018°51'  
Track history (hours):
 
Tides and Currents Weather Stations Pressure Air Temp Water Temp Dewpoint Dewpoint Depression Visibility Wind Speed Wind Dir Waves Ship Positions

Les Bruxellois

Last reported at 2017-Nov-04 08:54 UTC. Time now 2017-Dec-15 15:55 UTC.
Position N 43°51' E 010°14'.
Warning: this ship's position is 41 days out of date.

Length 34 m; draft 22.2 m.

Type: Pleasure craft. MMSI: 248407000.

Date/timePositionNaut miles runAvg speedWind from/ knotsBaromVisibWave heightAir tempDewpointWater temp
2017-Nov-04 08:54N 43°51' E 010°14'0 0.0
2017-Nov-04 08:30N 43°51' E 010°14'0 0.0
2017-Nov-04 08:00N 43°51' E 010°14'1 1.4
2017-Nov-04 07:30N 43°52' E 010°14'1 2.3
2017-Nov-04 07:01N 43°51' E 010°13'0 0.4
2017-Nov-04 06:30N 43°51' E 010°13'0 0.3
2017-Nov-04 06:00N 43°51' E 010°14'4 7.8
2017-Nov-04 05:30N 43°47' E 010°12'4 8.7
2017-Nov-04 05:00N 43°43' E 010°11'4 8.5
2017-Nov-04 04:31N 43°39' E 010°09'4 8.4
2017-Nov-04 04:00N 43°34' E 010°09'4 8.2
2017-Nov-04 03:28N 43°30' E 010°08'5 8.9
2017-Nov-04 02:56N 43°26' E 010°11'4 8.9
2017-Nov-04 02:30N 43°22' E 010°13'4 8.9
2017-Nov-04 02:00N 43°18' E 010°16'37711.6
2017-Nov-02 17:33N 38°27' E 015°31'013.2
2017-Nov-02 17:30N 38°26' E 015°32'813.1
2017-Nov-02 16:55N 38°20' E 015°38'7 9.3
2017-Nov-02 16:12N 38°14' E 015°38'314.5
2017-Nov-02 16:00N 38°11' E 015°37'713.6
2017-Nov-02 15:30N 38°04' E 015°38'1111.9
2017-Nov-02 14:33N 37°55' E 015°46'  
2017-Oct-27 13:53N 39°05' E 017°08'0 1.2
2017-Oct-27 13:30N 39°05' E 017°09'22 5.5
2017-Oct-27 09:36N 39°17' E 017°32'214.7
2017-Oct-27 09:29N 39°18' E 017°33'714.4
2017-Oct-27 08:59N 39°24' E 017°39'2814.4
2017-Oct-27 07:04N 39°43' E 018°05'114.8
2017-Oct-27 07:00N 39°43' E 018°06'814.4
2017-Oct-27 06:26N 39°48' E 018°14'1 2.1
2017-Oct-27 06:00N 39°49' E 018°15'0 0.0
2017-Oct-27 05:31N 39°49' E 018°15'0 0.0
2017-Oct-27 05:00N 39°49' E 018°15'0 0.0
2017-Oct-27 04:30N 39°49' E 018°15'0 0.0
2017-Oct-27 03:59N 39°49' E 018°15'0 0.0
2017-Oct-27 03:04N 39°49' E 018°15'0 0.0
2017-Oct-27 02:43N 39°49' E 018°15'0 0.1
2017-Oct-27 02:30N 39°49' E 018°15'0 0.0
2017-Oct-27 01:58N 39°49' E 018°15'0 0.0
2017-Oct-27 00:39N 39°49' E 018°15'0 0.0
2017-Oct-27 00:18N 39°49' E 018°15'0 0.0
2017-Oct-27 00:00N 39°49' E 018°15'0 0.0
2017-Oct-26 23:29N 39°49' E 018°15'0 0.0
2017-Oct-26 23:00N 39°49' E 018°15'0 0.0
2017-Oct-26 22:31N 39°49' E 018°15'0 0.0
2017-Oct-26 22:00N 39°49' E 018°15'0 0.0
2017-Oct-26 21:30N 39°49' E 018°15'0 0.0
2017-Oct-26 21:01N 39°49' E 018°15'0 0.5
2017-Oct-26 20:30N 39°49' E 018°15'5 9.6
2017-Oct-26 20:01N 39°46' E 018°20'713.4
2017-Oct-26 19:30N 39°44' E 018°28'713.4
2017-Oct-26 18:58N 39°42' E 018°37'1113.4
2017-Oct-26 18:11N 39°41' E 018°51'  

Dump ship's entire track history